Time;durP1;ratioP1;P1;durP2;ratioP2;P2;SDS_P1;SDS_P2;PMS_P1;PMS_P2;Temp;Humidity;BMP_temperature;BMP_pressure;BME280_temperature;BME280_humidity;BME280_pressure;Samples;Min_cycle;Max_cycle;Signal;HPM_P1;HPM_P2
2022/01/06 00:00:37;;;;;;;109.35;99.40;;;;;;;1.64;100.00;100117.31;5030659;28;20038;-79
2022/01/06 00:03:04;;;;;;;100.90;90.10;;;;;;;1.74;100.00;100119.75;5027222;28;20456;-80
2022/01/06 00:05:32;;;;;;;108.22;98.22;;;;;;;1.34;100.00;100109.09;5024982;28;20061;-79
2022/01/06 00:08:01;;;;;;;105.68;96.60;;;;;;;1.36;100.00;100111.53;5030479;28;20053;-79
2022/01/06 00:10:29;;;;;;;92.07;83.00;;;;;;;1.59;100.00;100115.16;5034521;28;20387;-80
2022/01/06 00:13:08;;;;;;;102.05;92.28;;;;;;;1.43;100.00;100119.56;5025176;28;20050;-80
2022/01/06 00:15:40;;;;;;;98.03;87.20;;;;;;;1.56;100.00;100120.72;5029183;28;20057;-80
2022/01/06 00:18:18;;;;;;;;;;;;;;;1.58;100.00;100112.72;5032186;28;20081;-79
2022/01/06 00:23:33;;;;;;;81.25;73.65;;;;;;;1.05;100.00;100119.94;5020130;28;20049;-79
2022/01/06 00:26:02;;;;;;;92.03;83.45;;;;;;;1.10;100.00;100128.16;5027846;28;20064;-79
2022/01/06 00:28:29;;;;;;;98.47;89.07;;;;;;;0.86;100.00;100135.91;5026015;28;20041;-79
2022/01/06 00:30:56;;;;;;;91.22;82.88;;;;;;;0.79;100.00;100135.72;5020722;28;20050;-79
2022/01/06 00:33:23;;;;;;;97.40;88.53;;;;;;;0.87;100.00;100138.34;5031178;28;20049;-79
2022/01/06 00:35:52;;;;;;;84.30;75.53;;;;;;;1.06;100.00;100131.22;5031173;28;20104;-80
2022/01/06 00:38:19;;;;;;;90.80;81.80;;;;;;;0.95;100.00;100126.31;5026839;28;20367;-79
2022/01/06 00:40:46;;;;;;;87.28;78.25;;;;;;;0.81;100.00;100125.09;5026215;28;20052;-79
2022/01/06 00:43:13;;;;;;;79.80;71.68;;;;;;;0.96;100.00;100125.31;5026436;28;20053;-82
2022/01/06 00:45:40;;;;;;;112.15;102.22;;;;;;;0.59;100.00;100127.28;5028870;28;20057;-80
2022/01/06 00:48:10;;;;;;;104.07;94.82;;;;;;;0.54;100.00;100132.13;5027155;28;20144;-79
2022/01/06 00:50:37;;;;;;;100.75;91.70;;;;;;;0.90;100.00;100138.03;5028584;28;20042;-79
2022/01/06 00:53:05;;;;;;;105.93;95.53;;;;;;;0.50;100.00;100141.28;5024966;28;20046;-79
2022/01/06 00:55:33;;;;;;;171.10;118.05;;;;;;;0.58;100.00;100135.28;5024598;28;20057;-79
2022/01/06 00:58:00;;;;;;;145.00;103.75;;;;;;;0.69;100.00;100137.59;5028434;28;20510;-80
2022/01/06 01:00:31;;;;;;;93.47;83.93;;;;;;;0.79;100.00;100137.53;5029049;28;20045;-79
2022/01/06 01:02:58;;;;;;;96.55;87.82;;;;;;;0.83;100.00;100138.84;5022648;28;20053;-79
2022/01/06 01:05:25;;;;;;;101.32;91.88;;;;;;;0.53;100.00;100133.13;5032298;28;20406;-81
2022/01/06 01:07:52;;;;;;;95.20;86.60;;;;;;;0.37;100.00;100126.03;5024276;28;20482;-79
2022/01/06 01:10:20;;;;;;;101.40;92.70;;;;;;;0.64;100.00;100124.22;5019896;28;20046;-79
2022/01/06 01:12:48;;;;;;;96.72;87.57;;;;;;;0.37;100.00;100128.63;5026048;28;20049;-80
2022/01/06 01:15:19;;;;;;;98.32;90.15;;;;;;;0.38;100.00;100132.06;5021503;28;20120;-79
2022/01/06 01:17:48;;;;;;;90.43;82.35;;;;;;;0.27;100.00;100127.88;5031621;28;20056;-79
2022/01/06 01:20:17;;;;;;;220.20;146.63;;;;;;;0.12;100.00;100140.72;5028162;28;20414;-80
2022/01/06 01:22:44;;;;;;;149.88;100.03;;;;;;;-0.01;100.00;100130.63;5025242;28;20429;-82
2022/01/06 01:25:10;;;;;;;144.63;94.70;;;;;;;0.02;100.00;100134.75;5022413;28;20123;-80
2022/01/06 01:27:42;;;;;;;124.50;91.00;;;;;;;0.20;100.00;100129.50;5029496;28;20056;-79
2022/01/06 01:30:12;;;;;;;123.50;89.93;;;;;;;0.22;100.00;100119.72;5028047;28;20049;-79
2022/01/06 01:32:40;;;;;;;127.72;96.03;;;;;;;-0.13;100.00;100123.19;5029925;28;20059;-80
2022/01/06 01:35:09;;;;;;;102.53;86.60;;;;;;;-0.25;100.00;100133.06;5026153;28;20041;-80
2022/01/06 01:37:38;;;;;;;103.47;87.22;;;;;;;-0.05;100.00;100129.31;5022987;28;20041;-79
2022/01/06 01:40:08;;;;;;;108.65;96.63;;;;;;;-0.14;100.00;100140.66;5025198;28;20046;-79
2022/01/06 01:42:35;;;;;;;95.07;84.85;;;;;;;-0.13;100.00;100136.25;5019420;28;20084;-79
2022/01/06 01:45:05;;;;;;;104.55;93.40;;;;;;;-0.01;100.00;100135.03;5031265;28;20053;-79
2022/01/06 01:47:39;;;;;;;114.43;101.40;;;;;;;0.03;100.00;100123.34;5019730;28;20054;-79
2022/01/06 01:50:12;;;;;;;115.72;103.10;;;;;;;-0.11;100.00;100126.50;5032934;28;20061;-80
2022/01/06 01:52:41;;;;;;;94.22;84.78;;;;;;;-0.02;100.00;100126.41;5024728;28;20053;-80
2022/01/06 01:55:08;;;;;;;118.55;103.93;;;;;;;0.25;100.00;100129.03;5026406;28;20132;-79
2022/01/06 01:57:35;;;;;;;101.20;90.75;;;;;;;0.12;100.00;100132.88;5029751;28;20045;-79
2022/01/06 02:00:05;;;;;;;97.90;87.65;;;;;;;-0.11;100.00;100129.09;5021459;28;20058;-80
2022/01/06 02:02:32;;;;;;;94.18;84.03;;;;;;;-0.05;100.00;100128.50;5024129;28;20053;-79
2022/01/06 02:04:59;;;;;;;102.10;91.82;;;;;;;-0.16;100.00;100132.16;5031465;28;20053;-80
2022/01/06 02:07:26;;;;;;;97.43;88.05;;;;;;;-0.07;100.00;100146.09;5028767;28;20132;-79
2022/01/06 02:09:53;;;;;;;84.03;70.50;;;;;;;-0.15;100.00;100144.25;5029998;28;20461;-79
2022/01/06 02:12:24;;;;;;;83.00;74.00;;;;;;;-0.08;100.00;100141.84;5020768;28;20045;-80
2022/01/06 02:14:51;;;;;;;119.00;83.57;;;;;;;-0.03;100.00;100143.03;5031692;28;20057;-79
2022/01/06 02:17:20;;;;;;;104.20;81.38;;;;;;;0.08;100.00;100135.94;5023627;28;20508;-79
2022/01/06 02:19:54;;;;;;;105.38;78.38;;;;;;;-0.19;100.00;100142.06;5032905;28;20498;-79
2022/01/06 02:22:21;;;;;;;86.95;77.38;;;;;;;-0.39;100.00;100141.41;5021601;28;20487;-80
2022/01/06 02:24:48;;;;;;;93.15;80.40;;;;;;;-0.65;100.00;100146.53;5021538;28;20127;-80
2022/01/06 02:27:15;;;;;;;87.68;75.07;;;;;;;-0.37;100.00;100140.28;5030100;28;20049;-80
2022/01/06 02:29:42;;;;;;;87.35;74.40;;;;;;;-0.09;100.00;100146.25;5029481;28;20115;-80
2022/01/06 02:32:14;;;;;;;92.30;82.30;;;;;;;-0.21;100.00;100144.84;5028219;28;20494;-79
2022/01/06 02:34:40;;;;;;;87.88;78.35;;;;;;;-0.30;100.00;100145.75;5033271;28;20060;-79
2022/01/06 02:37:09;;;;;;;91.70;75.72;;;;;;;-0.46;100.00;100147.22;5027131;28;20049;-81
2022/01/06 02:39:35;;;;;;;92.45;72.50;;;;;;;-0.50;100.00;100148.47;5025836;28;20111;-79
2022/01/06 02:42:02;;;;;;;92.63;79.13;;;;;;;-0.50;100.00;100156.31;5031605;28;20111;-80
2022/01/06 02:44:29;;;;;;;90.35;80.95;;;;;;;-0.49;100.00;100150.13;5022418;28;20057;-81
2022/01/06 02:46:56;;;;;;;86.05;73.35;;;;;;;-0.31;100.00;100159.75;5023418;28;20111;-80
2022/01/06 02:49:23;;;;;;;91.60;80.85;;;;;;;-0.32;100.00;100163.34;5034361;28;20115;-79
2022/01/06 02:51:49;;;;;;;103.18;91.88;;;;;;;-0.24;100.00;100168.66;5033786;28;20042;-79
2022/01/06 02:54:21;;;;;;;103.60;87.95;;;;;;;-0.14;100.00;100174.59;5029219;28;20115;-80
2022/01/06 02:56:48;;;;;;;91.60;81.38;;;;;;;-0.27;100.00;100169.75;5027076;28;20077;-79
2022/01/06 02:59:15;;;;;;;91.00;75.70;;;;;;;-0.11;100.00;100169.06;5025878;28;20085;-80
2022/01/06 03:01:43;;;;;;;95.53;81.30;;;;;;;-0.30;100.00;100166.63;5152042;22;20053;-79
2022/01/06 03:04:11;;;;;;;106.35;81.68;;;;;;;-0.25;100.00;100170.41;5085400;28;20048;-80
2022/01/06 03:06:39;;;;;;;96.10;80.47;;;;;;;-0.36;100.00;100170.66;5084343;28;21432;-81
2022/01/06 03:09:06;;;;;;;88.28;76.32;;;;;;;-0.62;100.00;100167.94;5090203;28;20121;-79
2022/01/06 03:11:40;;;;;;;88.18;78.00;;;;;;;-0.58;100.00;100160.63;5085075;28;20041;-80
2022/01/06 03:14:07;;;;;;;97.10;86.10;;;;;;;-0.67;100.00;100158.91;5084279;28;20132;-79
2022/01/06 03:16:33;;;;;;;89.35;79.28;;;;;;;-0.78;100.00;100157.34;5086023;28;20059;-80
2022/01/06 03:19:00;;;;;;;103.30;86.57;;;;;;;-0.81;100.00;100162.84;5080248;28;20121;-80
2022/01/06 03:21:27;;;;;;;103.07;91.40;;;;;;;-0.83;100.00;100159.53;5080706;28;20110;-80
2022/01/06 03:23:54;;;;;;;102.43;82.60;;;;;;;-0.82;100.00;100146.34;5086069;28;20043;-79
2022/01/06 03:26:20;;;;;;;91.25;81.88;;;;;;;-1.11;100.00;100154.34;5080426;28;20056;-79
2022/01/06 03:28:50;;;;;;;120.43;109.97;;;;;;;-0.90;100.00;100159.31;5084693;28;20110;-79
2022/01/06 03:31:16;;;;;;;111.10;102.38;;;;;;;-0.66;100.00;100169.19;5092699;28;20082;-79
2022/01/06 03:33:43;;;;;;;111.03;102.00;;;;;;;-0.59;100.00;100177.25;5087223;28;20134;-79
2022/01/06 03:36:10;;;;;;;86.70;79.55;;;;;;;-0.44;100.00;100172.34;5081159;28;20052;-79
2022/01/06 03:38:36;;;;;;;104.47;96.50;;;;;;;-0.41;100.00;100172.06;5081722;28;20056;-79
2022/01/06 03:41:03;;;;;;;104.25;95.95;;;;;;;-0.25;100.00;100172.19;5085894;28;20525;-80
2022/01/06 03:43:30;;;;;;;98.35;89.63;;;;;;;-0.58;100.00;100171.06;5077298;28;20044;-79
2022/01/06 03:45:58;;;;;;;97.43;89.10;;;;;;;-0.40;100.00;100171.91;5081370;28;20064;-78
2022/01/06 03:48:25;;;;;;;86.60;78.82;;;;;;;-0.23;100.00;100178.09;5080176;28;20106;-79
2022/01/06 03:50:51;;;;;;;107.20;98.22;;;;;;;-0.02;100.00;100177.81;5079881;28;20045;-79
2022/01/06 03:53:18;;;;;;;113.80;104.55;;;;;;;-0.05;100.00;100191.97;5071912;28;20110;-79
2022/01/06 03:55:45;;;;;;;112.95;103.75;;;;;;;-0.34;100.00;100181.75;5075592;28;20109;-80
2022/01/06 03:58:12;;;;;;;120.20;110.43;;;;;;;-0.35;100.00;100180.13;5085393;28;20052;-79
2022/01/06 04:00:39;;;;;;;114.68;105.55;;;;;;;-0.48;100.00;100188.31;5084433;28;20056;-79
2022/01/06 04:03:07;;;;;;;104.13;95.38;;;;;;;0.08;100.00;100178.53;5080683;28;20052;-80
2022/01/06 04:05:34;;;;;;;135.50;121.13;;;;;;;0.40;100.00;100172.75;5060371;28;20049;-79
2022/01/06 04:08:00;;;;;;;119.95;109.15;;;;;;;0.13;100.00;100186.75;5073205;28;20044;-79
2022/01/06 04:10:27;;;;;;;110.57;101.07;;;;;;;0.35;100.00;100177.59;5078634;28;20135;-79
2022/01/06 04:12:54;;;;;;;108.63;99.30;;;;;;;0.34;100.00;100183.00;5083248;28;20044;-80
2022/01/06 04:15:23;;;;;;;118.78;109.13;;;;;;;0.36;100.00;100181.84;5087788;28;20456;-80
2022/01/06 04:17:50;;;;;;;110.90;102.38;;;;;;;0.36;100.00;100197.50;5080845;28;20048;-80
2022/01/06 04:20:19;;;;;;;100.07;91.82;;;;;;;0.21;100.00;100205.09;5094271;28;20053;-80
2022/01/06 04:22:45;;;;;;;75.13;68.50;;;;;;;0.34;100.00;100203.88;5084742;28;20044;-80
2022/01/06 04:25:13;;;;;;;92.85;83.20;;;;;;;0.47;100.00;100203.47;5084387;28;20542;-79
2022/01/06 04:27:39;;;;;;;86.22;78.85;;;;;;;0.47;100.00;100200.88;5083086;28;20135;-79
2022/01/06 04:30:08;;;;;;;71.13;64.50;;;;;;;0.28;100.00;100201.88;5090555;28;20073;-79
2022/01/06 04:32:35;;;;;;;77.80;71.35;;;;;;;0.16;100.00;100203.91;5080511;28;20127;-79
2022/01/06 04:35:03;;;;;;;67.35;61.53;;;;;;;0.12;100.00;100221.69;5093999;28;20121;-80
2022/01/06 04:37:32;;;;;;;65.50;59.72;;;;;;;0.04;100.00;100213.75;5083218;28;20051;-79
2022/01/06 04:39:58;;;;;;;65.78;60.00;;;;;;;0.01;100.00;100208.03;5082330;28;20493;-79
2022/01/06 04:42:26;;;;;;;69.72;63.53;;;;;;;0.04;100.00;100210.34;5089961;28;20176;-79
2022/01/06 04:44:53;;;;;;;77.45;70.97;;;;;;;-0.20;100.00;100219.56;5081114;28;20048;-81
2022/01/06 04:47:20;;;;;;;68.60;62.50;;;;;;;-0.19;100.00;100220.38;5084585;28;20458;-79
2022/01/06 04:49:47;;;;;;;70.55;64.35;;;;;;;0.30;100.00;100229.47;5092341;28;20373;-80
2022/01/06 04:52:13;;;;;;;66.50;61.05;;;;;;;0.51;100.00;100234.38;5087211;28;20530;-79
2022/01/06 04:54:42;;;;;;;67.88;61.92;;;;;;;0.63;100.00;100234.94;5082890;28;20113;-79
2022/01/06 04:57:08;;;;;;;67.47;61.90;;;;;;;0.44;100.00;100242.00;5079996;28;20048;-80
2022/01/06 04:59:36;;;;;;;61.47;56.33;;;;;;;0.40;100.00;100238.06;5082828;28;20098;-79
2022/01/06 05:02:03;;;;;;;60.75;55.88;;;;;;;0.86;100.00;100236.06;5084291;28;20083;-80
2022/01/06 05:04:30;;;;;;;60.88;56.13;;;;;;;0.86;100.00;100238.69;5089490;28;20460;-79
2022/01/06 05:06:57;;;;;;;59.42;54.90;;;;;;;0.72;100.00;100241.88;5083824;28;20129;-79
2022/01/06 05:09:24;;;;;;;59.33;54.33;;;;;;;0.62;100.00;100241.16;5083782;28;20063;-80
2022/01/06 05:11:52;;;;;;;57.15;52.58;;;;;;;0.36;100.00;100238.50;5074722;28;20384;-80
2022/01/06 05:14:19;;;;;;;56.13;51.72;;;;;;;0.54;100.00;100233.25;5065544;28;20040;-80
2022/01/06 05:16:45;;;;;;;58.55;53.38;;;;;;;0.46;100.00;100234.03;5074417;28;20365;-79
2022/01/06 05:19:12;;;;;;;69.95;64.47;;;;;;;0.49;100.00;100236.34;5071212;28;20499;-80
2022/01/06 05:21:39;;;;;;;67.65;62.83;;;;;;;0.53;100.00;100234.22;5071351;28;20533;-79
2022/01/06 05:24:12;;;;;;;61.40;56.50;;;;;;;0.51;100.00;100236.16;5069213;28;20054;-80
2022/01/06 05:26:39;;;;;;;57.10;52.75;;;;;;;0.36;100.00;100239.31;5068864;28;20102;-79
2022/01/06 05:29:08;;;;;;;537.67;219.02;;;;;;;0.35;100.00;100237.69;5070123;28;20045;-79
2022/01/06 05:31:35;;;;;;;284.95;122.45;;;;;;;0.09;100.00;100248.09;5067625;28;20116;-81
2022/01/06 05:34:02;;;;;;;123.18;85.50;;;;;;;0.28;100.00;100241.88;5069836;28;20052;-80
2022/01/06 05:36:29;;;;;;;134.35;91.30;;;;;;;0.43;100.00;100247.38;5069340;28;20048;-80
2022/01/06 05:38:56;;;;;;;84.07;76.20;;;;;;;0.51;100.00;100257.88;5071679;28;20103;-80
2022/01/06 05:41:22;;;;;;;77.75;70.68;;;;;;;0.71;100.00;100250.69;5070786;28;20040;-80
2022/01/06 05:43:50;;;;;;;70.95;65.38;;;;;;;0.62;100.00;100269.91;5075122;28;20507;-79
2022/01/06 05:46:18;;;;;;;82.07;75.15;;;;;;;0.75;100.00;100254.63;5080740;28;20052;-81
2022/01/06 05:48:45;;;;;;;77.72;71.90;;;;;;;0.54;100.00;100268.03;5069398;28;20048;-79
2022/01/06 05:51:13;;;;;;;62.65;57.45;;;;;;;0.40;100.00;100260.75;5072504;28;20041;-80
2022/01/06 05:53:41;;;;;;;69.75;63.85;;;;;;;0.35;100.00;100265.59;5072727;28;20048;-79
2022/01/06 05:56:07;;;;;;;99.55;90.05;;;;;;;0.72;100.00;100261.97;5076484;28;20488;-80
2022/01/06 05:58:35;;;;;;;76.75;68.93;;;;;;;0.04;100.00;100278.22;5074442;28;20109;-80
2022/01/06 06:01:02;;;;;;;96.20;83.80;;;;;;;0.47;100.00;100271.41;5075573;28;20059;-79
2022/01/06 06:03:30;;;;;;;81.18;72.55;;;;;;;-0.64;100.00;100287.22;5080391;28;20056;-80
2022/01/06 06:05:57;;;;;;;95.40;78.60;;;;;;;-0.49;100.00;100279.75;5090678;28;20055;-79
2022/01/06 06:08:23;;;;;;;144.45;112.97;;;;;;;-0.33;100.00;100273.94;5081051;28;20101;-79
2022/01/06 06:10:50;;;;;;;105.63;94.25;;;;;;;-0.19;100.00;100280.44;5081383;28;20048;-79
2022/01/06 06:13:17;;;;;;;119.22;103.32;;;;;;;-0.16;100.00;100277.53;5083736;28;20056;-79
2022/01/06 06:15:44;;;;;;;103.43;91.90;;;;;;;-0.32;100.00;100273.78;5082811;28;20048;-80
2022/01/06 06:18:12;;;;;;;99.82;87.78;;;;;;;-0.07;100.00;100282.69;5078815;28;20453;-80
2022/01/06 06:20:40;;;;;;;105.10;88.93;;;;;;;0.35;100.00;100291.72;5085434;28;20481;-79
2022/01/06 06:23:07;;;;;;;141.65;108.00;;;;;;;0.58;100.00;100284.25;5081742;28;20093;-79
2022/01/06 06:25:35;;;;;;;103.65;85.95;;;;;;;0.66;100.00;100290.34;5072795;28;20118;-80
2022/01/06 06:28:02;;;;;;;104.20;87.22;;;;;;;1.12;100.00;100296.22;5073810;28;20049;-80
2022/01/06 06:30:29;;;;;;;125.15;97.25;;;;;;;1.30;100.00;100290.94;5078957;28;20037;-79
2022/01/06 06:32:56;;;;;;;107.95;89.90;;;;;;;1.82;100.00;100296.03;5074282;28;20040;-79
2022/01/06 06:35:23;;;;;;;88.85;77.45;;;;;;;2.00;100.00;100300.34;5058214;28;20112;-80
2022/01/06 06:37:51;;;;;;;118.75;98.78;;;;;;;1.90;100.00;100299.66;5079941;28;20496;-79
2022/01/06 06:40:19;;;;;;;129.85;111.55;;;;;;;2.52;100.00;100307.94;5073673;28;20113;-80
2022/01/06 06:42:45;;;;;;;127.00;114.45;;;;;;;2.71;100.00;100296.31;5071427;28;20044;-80
2022/01/06 06:45:12;;;;;;;211.85;162.68;;;;;;;3.06;100.00;100304.81;5073610;28;20484;-79
2022/01/06 06:47:39;;;;;;;133.55;120.20;;;;;;;3.73;100.00;100307.88;5073855;28;20115;-79
2022/01/06 06:50:07;;;;;;;112.53;101.05;;;;;;;4.43;100.00;100314.03;5062404;28;20051;-79
2022/01/06 06:52:34;;;;;;;141.55;122.65;;;;;;;4.30;100.00;100320.69;5084020;28;20048;-81
2022/01/06 06:55:02;;;;;;;129.90;118.72;;;;;;;5.36;100.00;100324.22;5070620;28;20114;-80
2022/01/06 06:57:29;;;;;;;119.18;106.68;;;;;;;5.50;100.00;100322.56;5061417;28;20130;-80
2022/01/06 06:59:56;;;;;;;137.50;124.60;;;;;;;6.13;100.00;100320.34;5081167;28;20105;-80
2022/01/06 07:02:23;;;;;;;114.75;104.32;;;;;;;6.49;100.00;100312.38;5075139;28;20135;-80
2022/01/06 07:04:50;;;;;;;107.90;99.00;;;;;;;6.68;100.00;100316.19;5073465;28;20040;-80
2022/01/06 07:07:17;;;;;;;93.65;86.45;;;;;;;7.28;100.00;100317.44;5073170;28;20049;-80
2022/01/06 07:09:43;;;;;;;90.55;83.40;;;;;;;7.29;100.00;100319.09;5077997;28;20487;-80
2022/01/06 07:12:12;;;;;;;87.35;80.05;;;;;;;8.19;100.00;100313.78;5077672;28;20045;-80
2022/01/06 07:14:39;;;;;;;78.53;72.13;;;;;;;8.12;100.00;100310.31;5090091;28;20060;-80
2022/01/06 07:17:07;;;;;;;98.85;91.03;;;;;;;8.26;100.00;100309.34;5083157;28;20048;-78
2022/01/06 07:19:34;;;;;;;92.90;85.13;;;;;;;8.37;100.00;100316.66;5077516;28;20048;-79
2022/01/06 07:22:01;;;;;;;93.03;84.95;;;;;;;8.12;100.00;100315.59;5080306;28;20052;-79
2022/01/06 07:24:28;;;;;;;93.07;83.50;;;;;;;7.82;100.00;100321.19;5080274;28;20056;-80
2022/01/06 07:26:55;;;;;;;92.35;84.18;;;;;;;8.36;100.00;100322.97;5080215;28;20385;-80
2022/01/06 07:29:23;;;;;;;83.60;76.70;;;;;;;8.78;100.00;100318.38;5081621;28;20152;-78
2022/01/06 07:31:49;;;;;;;87.75;79.85;;;;;;;9.45;100.00;100332.38;5080955;28;20578;-80
2022/01/06 07:34:16;;;;;;;84.45;77.38;;;;;;;9.64;100.00;100328.03;5087104;28;20044;-79
2022/01/06 07:36:43;;;;;;;81.78;75.20;;;;;;;9.37;100.00;100328.09;5079512;28;20106;-80
2022/01/06 07:39:10;;;;;;;84.63;77.80;;;;;;;10.68;100.00;100318.94;5086652;28;20052;-80
2022/01/06 07:41:36;;;;;;;84.85;77.30;;;;;;;10.57;100.00;100310.84;5084826;28;20506;-78
2022/01/06 07:44:07;;;;;;;80.47;73.57;;;;;;;11.04;100.00;100319.22;5088030;28;20044;-80
2022/01/06 07:46:35;;;;;;;77.03;70.63;;;;;;;10.67;100.00;100311.97;5081514;28;20044;-80
2022/01/06 07:49:02;;;;;;;75.65;69.60;;;;;;;11.49;100.00;100325.13;5087533;28;20044;-80
2022/01/06 07:51:31;;;;;;;75.07;68.90;;;;;;;10.50;100.00;100324.97;5079148;28;20146;-81
2022/01/06 07:53:59;;;;;;;83.13;76.63;;;;;;;11.12;100.00;100327.75;5076747;28;20053;-81
2022/01/06 07:56:26;;;;;;;77.80;71.18;;;;;;;10.38;100.00;100312.59;5079800;28;20051;-80
2022/01/06 07:58:53;;;;;;;79.50;72.75;;;;;;;10.76;100.00;100333.78;5083974;28;20117;-80
2022/01/06 08:01:20;;;;;;;82.95;76.15;;;;;;;11.86;100.00;100315.31;5083672;28;20049;-81
2022/01/06 08:03:48;;;;;;;78.90;72.78;;;;;;;12.14;100.00;100321.94;5087590;28;20090;-79
2022/01/06 08:06:16;;;;;;;71.05;65.95;;;;;;;11.47;100.00;100324.56;5090572;28;20052;-78
2022/01/06 08:08:44;;;;;;;76.38;70.57;;;;;;;11.90;100.00;100321.81;5086205;28;20369;-79
2022/01/06 08:11:11;;;;;;;75.97;70.18;;;;;;;11.85;100.00;100316.34;5083854;28;20102;-80
2022/01/06 08:13:37;;;;;;;76.85;71.07;;;;;;;12.36;100.00;100323.03;5083571;28;20047;-79
2022/01/06 08:16:05;;;;;;;77.07;70.95;;;;;;;13.20;100.00;100333.59;5084517;28;20098;-78
2022/01/06 08:18:32;;;;;;;78.35;72.15;;;;;;;13.89;100.00;100344.44;5086513;28;20113;-79
2022/01/06 08:21:00;;;;;;;76.22;69.95;;;;;;;13.83;100.00;100345.38;5092563;28;20052;-80
2022/01/06 08:23:27;;;;;;;76.90;70.68;;;;;;;13.86;100.00;100354.78;5074996;28;20542;-79
2022/01/06 08:25:55;;;;;;;73.53;67.90;;;;;;;14.27;100.00;100352.88;5083552;28;20063;-80
2022/01/06 08:28:22;;;;;;;72.47;66.88;;;;;;;15.20;100.00;100353.41;5084537;28;20076;-79
2022/01/06 08:30:49;;;;;;;71.55;66.35;;;;;;;15.00;100.00;100341.31;5084545;28;20052;-80
2022/01/06 08:33:15;;;;;;;74.40;68.60;;;;;;;14.93;100.00;100354.06;5084358;28;20085;-79
2022/01/06 08:35:42;;;;;;;73.15;67.75;;;;;;;14.37;100.00;100353.06;5092325;28;20407;-79
2022/01/06 08:38:10;;;;;;;83.18;76.13;;;;;;;14.03;100.00;100341.47;5082932;28;20112;-80
2022/01/06 08:40:38;;;;;;;82.53;76.15;;;;;;;14.40;100.00;100345.41;5084180;28;20063;-80
2022/01/06 08:43:05;;;;;;;84.55;77.75;;;;;;;14.89;100.00;100340.38;5084300;28;20051;-80
2022/01/06 08:45:32;;;;;;;81.80;75.45;;;;;;;15.16;100.00;100342.38;5085403;28;20052;-80
2022/01/06 08:47:59;;;;;;;76.07;69.93;;;;;;;15.56;100.00;100341.31;5081974;28;20139;-78
2022/01/06 08:50:26;;;;;;;72.97;67.22;;;;;;;15.49;100.00;100336.16;5092212;28;20110;-79
2022/01/06 08:52:53;;;;;;;66.68;61.42;;;;;;;15.75;100.00;100347.19;5083977;28;20048;-79
2022/01/06 08:55:22;;;;;;;65.05;59.95;;;;;;;15.86;100.00;100332.88;5084521;28;20048;-78
2022/01/06 08:57:49;;;;;;;69.95;64.65;;;;;;;16.09;100.00;100339.03;5075517;28;20067;-80
2022/01/06 09:00:16;;;;;;;73.88;68.22;;;;;;;16.26;100.00;100316.44;5081413;28;20040;-80
2022/01/06 09:02:43;;;;;;;68.05;62.75;;;;;;;15.95;100.00;100327.91;5073225;28;20045;-79
2022/01/06 09:05:10;;;;;;;68.65;63.35;;;;;;;16.15;100.00;100325.44;5064023;28;20110;-78
2022/01/06 09:07:37;;;;;;;71.93;66.10;;;;;;;17.56;100.00;100328.69;5083263;28;20414;-80
2022/01/06 09:10:05;;;;;;;71.47;65.97;;;;;;;17.58;100.00;100323.88;5089362;28;20101;-79
2022/01/06 09:12:33;;;;;;;75.72;70.15;;;;;;;17.61;100.00;100317.16;5085080;28;20105;-82
2022/01/06 09:15:00;;;;;;;78.72;72.43;;;;;;;18.41;100.00;100324.94;5079627;28;20538;-80
2022/01/06 09:17:27;;;;;;;81.70;75.05;;;;;;;18.05;100.00;100319.47;5083783;28;20056;-80
2022/01/06 09:19:54;;;;;;;76.78;70.60;;;;;;;17.51;100.00;100320.59;5090843;28;20047;-78
2022/01/06 09:22:20;;;;;;;71.00;65.55;;;;;;;17.44;100.00;100311.16;5087127;28;20074;-79
2022/01/06 09:24:48;;;;;;;69.03;63.72;;;;;;;17.27;100.00;100305.97;5079868;28;20110;-80
2022/01/06 09:27:14;;;;;;;71.93;66.13;;;;;;;17.03;100.00;100302.88;5082663;28;20048;-79
2022/01/06 09:29:42;;;;;;;72.88;66.95;;;;;;;17.44;100.00;100300.44;5084095;28;20055;-79
2022/01/06 09:32:09;;;;;;;69.03;63.92;;;;;;;17.51;100.00;100293.75;5084001;28;20124;-78
2022/01/06 09:34:36;;;;;;;72.47;66.70;;;;;;;18.09;100.00;100299.06;5070688;28;20049;-79
2022/01/06 09:37:03;;;;;;;80.38;74.22;;;;;;;17.28;100.00;100294.19;5073276;28;20102;-80
2022/01/06 09:39:30;;;;;;;69.40;64.15;;;;;;;17.01;100.00;100292.41;5066691;28;20463;-78
2022/01/06 09:41:57;;;;;;;74.00;68.57;;;;;;;17.14;100.00;100283.91;5076998;28;20059;-80
2022/01/06 09:44:24;;;;;;;68.70;63.53;;;;;;;16.47;100.00;100279.91;5079694;28;20036;-81
2022/01/06 09:46:54;;;;;;;64.65;59.65;;;;;;;17.02;100.00;100275.25;5078423;28;20109;-79
2022/01/06 09:49:22;;;;;;;65.15;60.33;;;;;;;17.17;100.00;100267.28;5087426;28;20048;-79
2022/01/06 09:51:48;;;;;;;70.78;64.93;;;;;;;18.56;100.00;100259.59;5084598;28;20044;-79
2022/01/06 09:54:15;;;;;;;75.45;69.75;;;;;;;18.00;100.00;100268.41;5081777;28;20048;-78
2022/01/06 09:56:42;;;;;;;68.85;63.67;;;;;;;17.81;100.00;100270.78;5083642;28;20052;-79
2022/01/06 09:59:09;;;;;;;72.72;67.13;;;;;;;17.95;100.00;100263.03;5080298;28;20138;-80
2022/01/06 10:01:35;;;;;;;77.47;71.72;;;;;;;17.69;100.00;100262.94;5085437;28;20040;-80
2022/01/06 10:04:04;;;;;;;68.57;63.45;;;;;;;18.03;100.00;100257.97;5072180;28;20063;-79
2022/01/06 10:06:31;;;;;;;69.50;64.13;;;;;;;17.60;100.00;100264.50;5077646;28;20056;-80
2022/01/06 10:09:01;;;;;;;71.10;65.85;;;;;;;17.63;100.00;100264.78;5083671;28;20080;-79
2022/01/06 10:11:30;;;;;;;72.03;66.30;;;;;;;18.73;100.00;100257.47;5083431;28;20140;-80
2022/01/06 10:14:00;;;;;;;70.57;65.15;;;;;;;17.53;100.00;100269.31;5079887;28;20048;-79
2022/01/06 10:16:29;;;;;;;71.63;66.32;;;;;;;17.07;100.00;100275.28;5085818;28;20051;-78
2022/01/06 10:19:01;;;;;;;75.70;69.55;;;;;;;16.93;100.00;100271.44;5079313;28;20048;-78
2022/01/06 10:21:36;;;;;;;67.68;62.17;;;;;;;16.57;100.00;100270.34;5071401;28;20048;-79
2022/01/06 10:24:07;;;;;;;66.53;61.33;;;;;;;17.50;100.00;100267.97;5080426;28;20140;-79
2022/01/06 10:26:34;;;;;;;74.15;68.78;;;;;;;17.26;100.00;100283.69;5082638;28;20055;-79
2022/01/06 10:29:02;;;;;;;67.40;62.60;;;;;;;17.46;100.00;100280.31;5072110;28;20426;-79
2022/01/06 10:31:31;;;;;;;66.05;61.22;;;;;;;17.41;100.00;100285.66;5081289;28;20037;-78
2022/01/06 10:33:58;;;;;;;71.70;66.38;;;;;;;17.31;100.00;100278.38;5084147;28;20065;-79
2022/01/06 10:36:31;;;;;;;72.50;66.93;;;;;;;17.88;100.00;100271.34;5086695;28;20048;-78
2022/01/06 10:39:02;;;;;;;76.32;70.35;;;;;;;17.84;100.00;100273.75;5083048;28;20044;-79
2022/01/06 10:41:29;;;;;;;75.25;69.45;;;;;;;17.22;100.00;100279.94;5083198;28;20454;-80
2022/01/06 10:43:57;;;;;;;80.03;74.00;;;;;;;17.04;100.00;100288.41;5079929;28;20047;-80
2022/01/06 10:46:33;;;;;;;80.57;74.28;;;;;;;17.01;100.00;100288.94;5080176;28;20041;-79
2022/01/06 10:49:02;;;;;;;71.38;65.88;;;;;;;16.80;100.00;100272.69;5081167;28;20052;-79
2022/01/06 10:51:35;;;;;;;65.35;60.25;;;;;;;16.80;100.00;100278.06;5071945;28;20109;-80
2022/01/06 10:54:02;;;;;;;69.35;63.90;;;;;;;16.33;100.00;100280.59;5083170;28;20133;-79
2022/01/06 10:56:29;;;;;;;77.00;71.20;;;;;;;17.26;100.00;100272.16;5082454;28;20056;-79
2022/01/06 10:58:58;;;;;;;82.35;76.15;;;;;;;17.94;100.00;100272.16;5076859;28;20117;-81
2022/01/06 11:01:25;;;;;;;77.13;71.07;;;;;;;17.55;100.00;100276.06;5067186;28;20560;-79
2022/01/06 11:03:51;;;;;;;77.82;71.70;;;;;;;17.79;100.00;100280.97;5084053;28;20055;-79
2022/01/06 11:06:18;;;;;;;73.30;67.63;;;;;;;18.00;100.00;100277.28;5077803;28;20057;-80